Time;durP1;ratioP1;P1;durP2;ratioP2;P2;SDS_P1;SDS_P2;PMS_P1;PMS_P2;Temp;Humidity;BMP_temperature;BMP_pressure;BME280_temperature;BME280_humidity;BME280_pressure;Samples;Min_cycle;Max_cycle;Signal;HPM_P1;HPM_P2
2023/09/13 00:00:54;;;;;;;6.50;5.90;;;23.90;99.90;;;;;;5043170;28;20172;-73
2023/09/13 00:03:20;;;;;;;6.40;5.40;;;23.90;99.90;;;;;;5042277;28;20228;-73
2023/09/13 00:05:46;;;;;;;5.47;4.97;;;24.00;99.90;;;;;;5043957;28;20216;-74
2023/09/13 00:08:12;;;;;;;5.73;5.07;;;24.00;99.90;;;;;;5036311;28;20227;-74
2023/09/13 00:10:37;;;;;;;8.47;5.87;;;24.00;99.90;;;;;;5027354;28;20291;-74
2023/09/13 00:13:03;;;;;;;6.93;5.10;;;23.90;99.90;;;;;;5029806;28;20669;-74
2023/09/13 00:15:29;;;;;;;9.10;5.67;;;23.90;99.90;;;;;;5030205;28;20179;-74
2023/09/13 00:17:54;;;;;;;6.20;5.60;;;23.90;99.90;;;;;;5025500;28;20219;-74
2023/09/13 00:20:20;;;;;;;6.57;5.73;;;24.00;99.90;;;;;;5027035;28;20173;-74
2023/09/13 00:22:45;;;;;;;6.10;5.50;;;23.90;99.90;;;;;;5030074;28;20200;-74
2023/09/13 00:25:11;;;;;;;6.67;5.10;;;23.90;99.90;;;;;;5027537;28;20200;-74
2023/09/13 00:27:37;;;;;;;5.40;4.90;;;23.80;99.90;;;;;;5024388;28;20168;-74
2023/09/13 00:30:03;;;;;;;10.70;5.93;;;23.90;99.90;;;;;;5025958;28;20221;-73
2023/09/13 00:32:28;;;;;;;6.20;5.10;;;23.90;99.90;;;;;;5025970;28;20212;-74
2023/09/13 00:34:54;;;;;;;5.37;4.80;;;23.90;99.90;;;;;;5028968;28;20430;-74
2023/09/13 00:37:20;;;;;;;7.03;4.90;;;23.90;99.90;;;;;;5025651;28;20650;-75
2023/09/13 00:39:45;;;;;;;6.17;5.50;;;23.90;99.90;;;;;;5024108;28;20682;-74
2023/09/13 00:42:11;;;;;;;7.17;5.20;;;23.90;99.90;;;;;;5025953;28;20371;-74
2023/09/13 00:44:36;;;;;;;8.23;5.43;;;23.90;99.90;;;;;;5025410;28;20195;-74
2023/09/13 00:47:02;;;;;;;5.47;4.90;;;23.80;99.90;;;;;;5018149;28;20188;-74
2023/09/13 00:49:28;;;;;;;5.33;4.50;;;23.80;99.90;;;;;;5036299;28;20210;-74
2023/09/13 00:51:57;;;;;;;4.90;4.40;;;23.80;99.90;;;;;;5028044;28;20681;-74
2023/09/13 00:54:23;;;;;;;6.10;5.50;;;23.80;99.90;;;;;;5028719;28;20184;-74
2023/09/13 00:56:49;;;;;;;6.40;5.17;;;23.80;99.90;;;;;;5025546;28;20419;-74
2023/09/13 00:59:15;;;;;;;8.33;5.80;;;23.80;99.90;;;;;;5024561;28;20494;-74
2023/09/13 01:01:41;;;;;;;6.00;4.73;;;23.80;99.90;;;;;;5031569;28;20193;-74
2023/09/13 01:04:07;;;;;;;4.90;4.40;;;23.90;99.90;;;;;;5023932;28;20259;-74
2023/09/13 01:06:35;;;;;;;6.10;5.50;;;23.90;99.90;;;;;;5030909;28;20482;-74
2023/09/13 01:09:04;;;;;;;5.07;4.30;;;24.00;99.90;;;;;;5030326;28;20509;-74
2023/09/13 01:11:29;;;;;;;7.00;5.00;;;23.90;99.90;;;;;;5029758;28;20431;-75
2023/09/13 01:13:55;;;;;;;6.37;5.13;;;23.90;99.90;;;;;;5026260;28;20988;-75
2023/09/13 01:16:39;;;;;;;6.23;5.63;;;24.00;99.90;;;;;;5035808;28;20235;-75
2023/09/13 01:19:23;;;;;;;6.40;5.80;;;24.00;99.90;;;;;;5025336;28;20225;-75
2023/09/13 01:22:07;;;;;;;8.40;5.40;;;24.00;99.90;;;;;;5027804;28;20450;-75
2023/09/13 01:24:32;;;;;;;6.53;5.30;;;23.90;99.90;;;;;;5036245;28;20422;-75
2023/09/13 01:27:16;;;;;;;6.70;5.43;;;23.90;99.90;;;;;;5028306;28;20426;-75
2023/09/13 01:29:44;;;;;;;5.40;4.90;;;23.90;99.90;;;;;;5029089;28;20189;-75
2023/09/13 01:32:10;;;;;;;6.00;5.23;;;23.80;99.90;;;;;;5024660;28;20536;-74
2023/09/13 01:34:35;;;;;;;5.80;4.80;;;23.80;99.90;;;;;;5031315;28;20913;-75
2023/09/13 01:37:01;;;;;;;5.10;4.60;;;23.80;99.90;;;;;;5024412;28;20173;-75
2023/09/13 01:39:27;;;;;;;6.23;5.63;;;23.60;99.90;;;;;;5029242;28;22223;-75
2023/09/13 01:41:58;;;;;;;6.67;4.70;;;23.60;99.90;;;;;;5030715;28;20199;-75
2023/09/13 01:44:25;;;;;;;6.03;5.43;;;23.60;99.90;;;;;;5025750;28;20180;-75
2023/09/13 01:46:52;;;;;;;5.93;4.93;;;23.50;99.90;;;;;;5034830;28;20769;-75
2023/09/13 01:49:20;;;;;;;5.27;4.77;;;23.60;99.90;;;;;;5028252;28;20916;-75
2023/09/13 01:51:46;;;;;;;10.30;5.43;;;23.60;99.90;;;;;;5037717;28;20454;-75
2023/09/13 01:54:12;;;;;;;8.90;4.83;;;23.60;99.90;;;;;;5016860;28;20427;-75
2023/09/13 01:56:38;;;;;;;6.83;4.93;;;23.50;99.90;;;;;;5034926;28;20664;-75
2023/09/13 01:59:04;;;;;;;9.33;5.00;;;23.60;99.90;;;;;;5024538;28;20203;-75
2023/09/13 02:01:29;;;;;;;17.73;5.10;;;23.40;99.90;;;;;;5032888;28;20180;-75
2023/09/13 02:03:56;;;;;;;5.50;5.00;;;23.40;99.90;;;;;;5028239;28;20899;-75
2023/09/13 02:06:21;;;;;;;6.50;4.40;;;23.40;99.90;;;;;;5026735;28;20184;-75
2023/09/13 02:08:47;;;;;;;8.03;4.60;;;23.40;99.90;;;;;;5028504;28;20426;-75
2023/09/13 02:11:12;;;;;;;6.00;4.63;;;23.30;99.90;;;;;;5028532;28;20195;-75
2023/09/13 02:13:38;;;;;;;4.93;4.43;;;23.30;99.90;;;;;;5020608;28;20197;-75
2023/09/13 02:16:04;;;;;;;4.50;4.10;;;23.30;99.90;;;;;;5024411;28;20181;-75
2023/09/13 02:18:29;;;;;;;4.47;4.07;;;23.40;99.90;;;;;;5032877;28;20189;-75
2023/09/13 02:20:55;;;;;;;4.90;4.27;;;23.30;99.90;;;;;;5016564;28;20267;-75
2023/09/13 02:23:20;;;;;;;7.80;4.40;;;23.30;99.90;;;;;;5032885;28;20227;-75
2023/09/13 02:25:47;;;;;;;4.80;4.07;;;23.20;99.90;;;;;;5027391;28;20294;-75
2023/09/13 02:28:13;;;;;;;5.37;4.87;;;23.20;99.90;;;;;;5032402;28;20252;-75
2023/09/13 02:30:39;;;;;;;6.00;4.60;;;23.20;99.90;;;;;;5042186;28;20776;-75
2023/09/13 02:33:06;;;;;;;5.37;4.30;;;23.20;99.90;;;;;;5022376;28;20467;-75
2023/09/13 02:35:32;;;;;;;8.10;4.90;;;23.20;99.90;;;;;;5035256;28;20911;-75
2023/09/13 02:37:58;;;;;;;4.40;4.00;;;23.10;99.90;;;;;;5025761;28;20454;-75
2023/09/13 02:40:24;;;;;;;5.60;4.00;;;23.00;99.90;;;;;;5028083;28;20431;-75
2023/09/13 02:42:50;;;;;;;6.33;4.43;;;23.00;99.90;;;;;;5014797;28;20577;-75
2023/09/13 02:45:16;;;;;;;4.93;4.40;;;23.10;99.90;;;;;;5027094;28;20921;-75
2023/09/13 02:47:43;;;;;;;4.60;3.97;;;23.00;99.90;;;;;;5023996;28;20185;-75
2023/09/13 02:50:09;;;;;;;4.53;4.13;;;23.10;99.90;;;;;;5017249;28;20430;-75
2023/09/13 02:52:35;;;;;;;4.83;4.33;;;23.10;99.90;;;;;;5025220;28;20455;-75
2023/09/13 02:55:01;;;;;;;5.17;4.67;;;23.00;99.90;;;;;;5021725;28;20462;-75
2023/09/13 02:57:27;;;;;;;4.70;4.10;;;23.00;99.90;;;;;;5029242;28;20185;-75
2023/09/13 02:59:53;;;;;;;4.10;3.70;;;23.10;99.90;;;;;;5031558;28;20430;-75
2023/09/13 03:02:20;;;;;;;4.03;3.63;;;23.00;99.90;;;;;;5025752;28;20231;-75
2023/09/13 03:04:52;;;;;;;5.37;4.50;;;23.00;99.90;;;;;;5028475;28;20920;-75
2023/09/13 03:07:18;;;;;;;4.60;4.20;;;23.00;99.90;;;;;;5024043;28;20565;-74
2023/09/13 03:09:45;;;;;;;4.90;4.40;;;23.00;99.90;;;;;;5035213;28;20435;-75
2023/09/13 03:12:11;;;;;;;5.60;3.80;;;22.90;99.90;;;;;;5029360;28;20462;-75
2023/09/13 03:14:36;;;;;;;4.80;4.30;;;22.90;99.90;;;;;;5026853;28;20924;-75
2023/09/13 03:17:02;;;;;;;4.60;4.20;;;23.00;99.90;;;;;;5024853;28;20181;-75
2023/09/13 03:19:30;;;;;;;4.60;4.20;;;23.00;99.90;;;;;;5032252;28;20184;-75
2023/09/13 03:21:55;;;;;;;6.60;4.27;;;22.90;99.90;;;;;;5026046;28;20192;-75
2023/09/13 03:24:21;;;;;;;6.73;3.90;;;23.00;99.90;;;;;;5032952;28;20447;-75
2023/09/13 03:26:47;;;;;;;6.37;4.13;;;23.00;99.90;;;;;;5029994;28;20544;-75
2023/09/13 03:29:12;;;;;;;4.87;4.47;;;22.90;99.90;;;;;;5026416;28;20242;-75
2023/09/13 03:31:38;;;;;;;4.83;4.10;;;22.80;99.90;;;;;;5030773;28;20231;-75
2023/09/13 03:34:04;;;;;;;5.13;4.63;;;22.60;99.90;;;;;;5024608;28;20223;-75
2023/09/13 03:36:30;;;;;;;6.00;4.13;;;22.50;99.90;;;;;;5027724;28;20253;-75
2023/09/13 03:38:55;;;;;;;4.70;4.20;;;22.60;99.90;;;;;;5024885;28;20431;-75
2023/09/13 03:41:22;;;;;;;5.37;4.40;;;22.70;99.90;;;;;;5027286;28;20427;-74
2023/09/13 03:43:49;;;;;;;5.57;4.30;;;22.90;99.90;;;;;;5028241;28;20194;-75
2023/09/13 03:46:15;;;;;;;5.33;4.20;;;23.00;99.90;;;;;;5032614;28;20530;-75
2023/09/13 03:48:40;;;;;;;6.83;4.17;;;22.80;99.90;;;;;;5029670;28;20516;-74
2023/09/13 03:51:09;;;;;;;4.90;4.40;;;22.70;99.90;;;;;;5015772;28;20184;-75
2023/09/13 03:53:35;;;;;;;5.17;4.67;;;22.60;99.90;;;;;;5023870;28;20707;-75
2023/09/13 03:56:02;;;;;;;5.97;4.03;;;22.60;99.90;;;;;;5027699;28;20420;-75
2023/09/13 03:58:28;;;;;;;4.80;4.30;;;22.60;99.90;;;;;;5026355;28;20449;-75
2023/09/13 04:00:55;;;;;;;4.50;3.90;;;22.70;99.90;;;;;;5029243;28;20427;-74
2023/09/13 04:03:21;;;;;;;4.77;4.27;;;22.70;99.90;;;;;;5029956;28;20496;-74
2023/09/13 04:05:47;;;;;;;6.63;4.47;;;22.80;99.90;;;;;;5030903;28;20506;-75
2023/09/13 04:08:12;;;;;;;6.23;4.83;;;22.80;99.90;;;;;;5028142;28;20538;-75
2023/09/13 04:10:38;;;;;;;5.43;4.93;;;22.70;99.90;;;;;;5040239;28;20420;-75
2023/09/13 04:13:04;;;;;;;4.70;4.30;;;22.80;99.90;;;;;;5020769;28;20211;-75
2023/09/13 04:15:31;;;;;;;4.83;4.10;;;22.60;99.90;;;;;;5021975;28;20191;-75
2023/09/13 04:17:57;;;;;;;6.93;4.37;;;22.60;99.90;;;;;;5030791;28;20191;-75
2023/09/13 04:20:23;;;;;;;8.43;4.97;;;22.50;99.90;;;;;;5025919;28;20416;-75
2023/09/13 04:22:49;;;;;;;5.50;4.40;;;22.50;99.90;;;;;;5033195;28;20197;-75
2023/09/13 04:25:15;;;;;;;5.10;4.60;;;22.60;99.90;;;;;;5030683;28;20196;-75
2023/09/13 04:27:47;;;;;;;5.80;4.37;;;22.60;99.90;;;;;;5032954;28;20204;-74
2023/09/13 04:30:17;;;;;;;4.93;4.53;;;22.60;99.90;;;;;;5033368;28;20437;-74
2023/09/13 04:32:42;;;;;;;5.63;4.13;;;22.50;99.90;;;;;;5031272;28;20485;-75
2023/09/13 04:35:08;;;;;;;4.80;4.40;;;22.50;99.90;;;;;;5018131;28;20431;-75
2023/09/13 04:37:34;;;;;;;5.90;4.60;;;22.60;99.90;;;;;;5013492;28;20230;-75
2023/09/13 04:40:07;;;;;;;5.07;4.10;;;22.60;99.90;;;;;;5029665;28;20699;-75
2023/09/13 04:42:42;;;;;;;5.03;3.63;;;22.60;99.90;;;;;;5036216;28;20450;-75
2023/09/13 04:45:11;;;;;;;4.23;3.70;;;22.60;99.90;;;;;;5043333;28;20762;-74
2023/09/13 04:47:38;;;;;;;5.30;4.50;;;22.60;99.90;;;;;;5044357;28;20482;-74
2023/09/13 04:50:05;;;;;;;4.73;4.23;;;22.50;99.90;;;;;;5050581;28;20423;-74
2023/09/13 04:52:30;;;;;;;7.43;4.23;;;22.40;99.90;;;;;;5034140;28;20492;-74
2023/09/13 04:54:56;;;;;;;4.60;4.20;;;22.40;99.90;;;;;;5063072;28;20419;-74
2023/09/13 04:57:21;;;;;;;5.13;4.30;;;22.50;99.90;;;;;;5045791;28;20203;-74
2023/09/13 04:59:48;;;;;;;4.60;4.00;;;22.50;99.90;;;;;;5050152;28;20188;-74
2023/09/13 05:02:14;;;;;;;6.20;4.30;;;22.50;99.90;;;;;;5043497;28;20677;-74
2023/09/13 05:04:40;;;;;;;4.63;4.17;;;22.60;99.90;;;;;;5028674;28;20457;-74
2023/09/13 05:07:06;;;;;;;5.70;4.10;;;22.60;99.90;;;;;;5028982;28;20271;-74
2023/09/13 05:09:32;;;;;;;5.03;4.23;;;22.50;99.90;;;;;;5029339;28;20811;-74
2023/09/13 05:11:58;;;;;;;5.00;4.50;;;22.50;99.90;;;;;;5022663;28;20505;-74
2023/09/13 05:14:24;;;;;;;5.27;4.77;;;22.50;99.90;;;;;;5024927;28;20434;-74
2023/09/13 05:16:49;;;;;;;5.10;4.37;;;22.50;99.90;;;;;;5025220;28;21018;-74
2023/09/13 05:19:15;;;;;;;5.73;4.63;;;22.50;99.90;;;;;;5029512;28;20719;-74
2023/09/13 05:21:41;;;;;;;6.90;4.47;;;22.40;99.90;;;;;;5024886;28;20212;-74
2023/09/13 05:24:07;;;;;;;4.73;4.23;;;22.40;99.90;;;;;;5027864;28;20212;-74
2023/09/13 05:26:33;;;;;;;5.00;4.27;;;22.40;99.90;;;;;;5033364;28;20461;-74
2023/09/13 05:28:58;;;;;;;6.20;5.03;;;22.30;99.90;;;;;;5029361;28;20198;-74
2023/09/13 05:31:24;;;;;;;4.90;4.40;;;22.20;99.90;;;;;;5032680;28;20196;-74
2023/09/13 05:33:49;;;;;;;4.97;4.40;;;22.30;99.90;;;;;;5028681;28;20227;-74
2023/09/13 05:36:16;;;;;;;5.03;4.43;;;22.30;99.90;;;;;;5010625;28;20531;-74
2023/09/13 05:38:42;;;;;;;5.80;4.73;;;22.20;99.90;;;;;;5032239;28;20271;-74
2023/09/13 05:41:11;;;;;;;6.13;4.80;;;22.30;99.90;;;;;;5024706;28;21004;-74
2023/09/13 05:43:42;;;;;;;6.20;5.30;;;22.30;99.90;;;;;;5027201;28;20353;-73
2023/09/13 05:46:08;;;;;;;5.60;5.10;;;22.30;99.90;;;;;;5011391;28;20419;-74
2023/09/13 05:48:34;;;;;;;6.63;4.70;;;22.30;99.90;;;;;;5026025;28;20449;-74
2023/09/13 05:51:00;;;;;;;5.97;5.33;;;22.30;99.90;;;;;;5027444;28;20431;-74
2023/09/13 05:53:26;;;;;;;6.10;5.30;;;22.20;99.90;;;;;;5035110;28;20526;-74
2023/09/13 05:55:52;;;;;;;5.60;4.90;;;22.10;99.90;;;;;;5029707;28;20427;-74
2023/09/13 05:58:18;;;;;;;5.97;5.07;;;22.20;99.90;;;;;;5034809;28;20669;-74
2023/09/13 06:00:47;;;;;;;6.73;5.20;;;22.10;99.90;;;;;;5034806;28;20553;-74
2023/09/13 06:03:16;;;;;;;5.73;4.80;;;22.10;99.90;;;;;;5026079;28;20209;-74
2023/09/13 06:05:41;;;;;;;5.30;4.80;;;22.00;99.90;;;;;;5032466;28;20793;-74
2023/09/13 06:08:08;;;;;;;6.73;5.03;;;22.10;99.90;;;;;;5015499;28;20446;-74
2023/09/13 06:10:34;;;;;;;6.60;5.40;;;22.10;99.90;;;;;;5032528;28;20657;-74
2023/09/13 06:12:59;;;;;;;6.63;5.93;;;22.10;99.90;;;;;;5024666;28;20475;-74
2023/09/13 06:15:25;;;;;;;6.50;5.47;;;22.10;99.90;;;;;;5025568;28;20219;-74
2023/09/13 06:17:51;;;;;;;7.10;5.60;;;22.10;99.90;;;;;;5026422;28;20188;-74
2023/09/13 06:20:17;;;;;;;5.87;5.27;;;22.00;99.90;;;;;;5029463;28;20187;-74
2023/09/13 06:22:43;;;;;;;9.90;5.80;;;22.10;99.90;;;;;;5021546;28;20463;-74
2023/09/13 06:25:09;;;;;;;8.20;6.10;;;22.10;99.90;;;;;;5029662;28;20428;-74
2023/09/13 06:27:34;;;;;;;7.50;6.10;;;22.10;99.90;;;;;;5032102;28;20215;-73
2023/09/13 06:30:00;;;;;;;8.63;5.47;;;22.10;99.90;;;;;;5029121;28;20541;-74
2023/09/13 06:32:26;;;;;;;7.80;6.23;;;22.10;99.90;;;;;;5032949;28;20253;-74
2023/09/13 06:34:56;;;;;;;6.50;5.40;;;22.10;99.90;;;;;;5028499;28;20196;-73
2023/09/13 06:37:22;;;;;;;6.33;5.73;;;22.10;99.90;;;;;;5030144;28;21132;-74
2023/09/13 06:39:47;;;;;;;7.37;6.03;;;22.00;99.90;;;;;;5029831;28;20428;-74
2023/09/13 06:42:13;;;;;;;12.17;6.20;;;22.10;99.90;;;;;;5029774;28;20201;-74
2023/09/13 06:44:40;;;;;;;6.63;5.90;;;22.20;99.90;;;;;;5032522;28;20211;-74
2023/09/13 06:47:05;;;;;;;6.80;5.67;;;22.20;99.90;;;;;;5030978;28;20189;-74
2023/09/13 06:49:31;;;;;;;6.63;5.90;;;22.10;99.90;;;;;;5030332;28;20801;-74
2023/09/13 06:51:57;;;;;;;5.93;5.33;;;22.20;99.90;;;;;;5028818;28;20640;-74
2023/09/13 06:54:22;;;;;;;6.33;5.73;;;22.10;99.90;;;;;;5028882;28;20274;-73
2023/09/13 06:56:48;;;;;;;7.00;5.83;;;22.10;99.90;;;;;;5033278;28;20208;-74
2023/09/13 06:59:13;;;;;;;6.30;5.70;;;22.20;99.90;;;;;;5021450;28;20240;-74
2023/09/13 07:01:40;;;;;;;8.10;6.83;;;22.20;99.90;;;;;;5028249;28;20678;-74
2023/09/13 07:04:05;;;;;;;8.10;5.57;;;22.10;99.90;;;;;;5028012;28;20184;-74
2023/09/13 07:06:31;;;;;;;7.23;6.53;;;22.20;99.90;;;;;;5032142;28;21058;-74
2023/09/13 07:08:57;;;;;;;7.97;5.87;;;22.10;99.90;;;;;;5032755;28;20621;-74
2023/09/13 07:11:23;;;;;;;7.27;6.57;;;22.10;99.90;;;;;;5027378;28;20185;-74
2023/09/13 07:13:49;;;;;;;7.47;5.70;;;22.10;99.90;;;;;;5026200;28;20798;-75
2023/09/13 07:16:15;;;;;;;6.27;5.67;;;22.10;99.90;;;;;;5025902;28;20439;-74
2023/09/13 07:18:40;;;;;;;9.50;6.63;;;22.10;99.90;;;;;;5032500;28;20423;-74
2023/09/13 07:21:06;;;;;;;6.80;5.47;;;22.10;99.90;;;;;;5027037;28;20220;-74
2023/09/13 07:23:31;;;;;;;6.33;5.73;;;22.10;99.90;;;;;;5025239;28;20212;-74
2023/09/13 07:25:57;;;;;;;6.17;5.57;;;22.10;99.90;;;;;;5028307;28;20176;-74
2023/09/13 07:28:23;;;;;;;7.47;5.67;;;22.10;99.90;;;;;;5028820;28;20231;-73
2023/09/13 07:30:48;;;;;;;6.20;5.33;;;22.30;99.90;;;;;;5041879;28;20665;-75
2023/09/13 07:33:14;;;;;;;6.60;5.97;;;22.30;99.90;;;;;;5024690;28;20273;-73
2023/09/13 07:35:40;;;;;;;6.93;6.33;;;22.30;99.90;;;;;;5023980;28;20169;-74
2023/09/13 07:38:05;;;;;;;8.30;6.93;;;22.30;99.90;;;;;;5028276;28;20187;-74
2023/09/13 07:40:31;;;;;;;6.93;6.07;;;22.40;99.90;;;;;;5027659;28;20185;-74
2023/09/13 07:42:58;;;;;;;6.63;5.33;;;22.50;99.90;;;;;;5025290;28;20521;-74
2023/09/13 07:45:24;;;;;;;5.97;5.37;;;22.50;99.90;;;;;;5024656;28;20282;-74
2023/09/13 07:47:50;;;;;;;6.67;6.07;;;22.50;99.90;;;;;;5026422;28;20450;-74
2023/09/13 07:50:29;;;;;;;6.63;5.60;;;22.50;99.90;;;;;;5025047;28;20525;-74
2023/09/13 07:52:55;;;;;;;7.40;6.00;;;22.60;99.90;;;;;;5027632;28;20215;-74
2023/09/13 07:55:21;;;;;;;6.63;6.03;;;22.40;99.90;;;;;;5032961;28;20424;-74
2023/09/13 07:57:47;;;;;;;7.30;5.50;;;22.50;99.90;;;;;;5024821;28;20983;-74
2023/09/13 08:00:13;;;;;;;5.70;5.13;;;22.50;99.90;;;;;;5021908;28;20424;-74
2023/09/13 08:02:41;;;;;;;6.43;5.53;;;22.50;99.90;;;;;;5030370;28;20203;-74
2023/09/13 08:05:07;;;;;;;11.90;5.80;;;22.40;99.90;;;;;;5024007;28;20530;-74
2023/09/13 08:07:32;;;;;;;7.00;6.00;;;22.50;99.90;;;;;;5013466;28;20437;-74
2023/09/13 08:09:58;;;;;;;7.60;5.83;;;22.50;99.90;;;;;;5021498;28;20779;-74
2023/09/13 08:12:24;;;;;;;6.70;6.10;;;22.50;99.90;;;;;;5028380;28;20212;-74
2023/09/13 08:14:49;;;;;;;7.00;5.40;;;22.50;99.90;;;;;;5019023;28;20219;-74
2023/09/13 08:17:15;;;;;;;7.17;5.53;;;22.60;99.90;;;;;;5025676;28;20184;-74
2023/09/13 08:19:40;;;;;;;6.47;5.90;;;22.60;99.90;;;;;;5026263;28;20256;-74
2023/09/13 08:22:08;;;;;;;6.73;5.90;;;22.60;99.90;;;;;;5020202;28;20228;-74
2023/09/13 08:24:34;;;;;;;6.13;5.53;;;22.60;99.90;;;;;;5021016;28;20185;-74
2023/09/13 08:26:59;;;;;;;5.80;5.20;;;22.60;99.90;;;;;;5024935;28;21131;-74
2023/09/13 08:29:25;;;;;;;6.30;5.57;;;22.60;99.90;;;;;;5023805;28;20214;-74
2023/09/13 08:31:50;;;;;;;10.10;6.37;;;22.60;99.90;;;;;;5021783;28;20239;-74
2023/09/13 08:34:16;;;;;;;7.50;6.70;;;22.60;99.90;;;;;;5020036;28;20910;-74
2023/09/13 08:36:41;;;;;;;7.40;6.70;;;22.70;99.90;;;;;;5024593;28;20184;-74
2023/09/13 08:39:07;;;;;;;6.73;6.13;;;22.70;99.90;;;;;;5027952;28;20179;-74
2023/09/13 08:41:33;;;;;;;6.30;5.67;;;22.70;99.90;;;;;;5018867;28;20197;-74
2023/09/13 08:44:03;;;;;;;8.30;6.10;;;22.80;99.90;;;;;;5028338;28;20237;-74
2023/09/13 08:46:30;;;;;;;7.33;6.20;;;23.00;99.90;;;;;;5027330;28;20501;-74
2023/09/13 08:48:57;;;;;;;7.50;5.77;;;23.00;99.90;;;;;;5009440;28;20797;-74
2023/09/13 08:51:25;;;;;;;7.07;6.20;;;22.90;99.90;;;;;;5020794;28;20807;-74
2023/09/13 08:53:51;;;;;;;6.00;5.07;;;23.00;99.90;;;;;;5033585;28;20461;-74
2023/09/13 08:56:20;;;;;;;7.80;5.83;;;23.10;99.90;;;;;;5039821;28;20426;-74
2023/09/13 08:58:45;;;;;;;9.60;6.17;;;23.20;99.90;;;;;;5029145;28;20411;-74
2023/09/13 09:01:13;;;;;;;6.00;4.90;;;23.30;99.90;;;;;;5009133;28;20944;-74
2023/09/13 09:03:40;;;;;;;5.87;5.30;;;23.40;99.90;;;;;;5025143;28;20691;-74
2023/09/13 09:06:06;;;;;;;6.30;5.70;;;23.40;99.90;;;;;;5028564;28;20516;-74
2023/09/13 09:08:37;;;;;;;8.37;6.70;;;23.40;99.90;;;;;;5025955;28;21008;-74
2023/09/13 09:11:03;;;;;;;7.73;5.53;;;23.40;99.90;;;;;;5033510;28;20183;-74
2023/09/13 09:13:29;;;;;;;7.67;5.33;;;23.40;99.90;;;;;;5025409;28;20538;-74
2023/09/13 09:15:58;;;;;;;6.53;5.40;;;23.50;99.90;;;;;;5025733;28;20184;-74
2023/09/13 09:18:26;;;;;;;6.00;4.90;;;23.50;99.90;;;;;;5026143;28;20411;-74
2023/09/13 09:20:52;;;;;;;8.40;6.10;;;23.60;99.90;;;;;;5032215;28;20415;-74
2023/09/13 09:23:18;;;;;;;6.43;5.70;;;23.50;99.90;;;;;;5027114;28;20536;-74
2023/09/13 09:25:44;;;;;;;8.13;6.63;;;23.50;99.90;;;;;;5032275;28;20418;-74
2023/09/13 09:28:10;;;;;;;7.63;6.47;;;23.40;99.90;;;;;;5031949;28;20442;-74
2023/09/13 09:30:37;;;;;;;7.60;6.90;;;23.40;99.90;;;;;;5041749;28;20442;-74
2023/09/13 09:33:04;;;;;;;6.50;5.90;;;23.40;99.90;;;;;;5045729;28;20235;-74
2023/09/13 09:35:34;;;;;;;7.43;6.73;;;23.50;99.90;;;;;;5045063;28;20442;-73
2023/09/13 09:38:00;;;;;;;8.80;6.60;;;23.50;99.90;;;;;;5052936;28;20446;-73
2023/09/13 09:40:26;;;;;;;7.00;6.30;;;23.50;99.90;;;;;;5050334;28;20448;-73
2023/09/13 09:42:56;;;;;;;6.50;5.80;;;23.50;99.90;;;;;;5046520;28;20227;-73
2023/09/13 09:45:23;;;;;;;7.50;5.97;;;23.50;99.90;;;;;;5047569;28;20240;-74
2023/09/13 09:47:50;;;;;;;6.87;6.17;;;23.60;99.90;;;;;;5045157;28;20418;-73
2023/09/13 09:50:16;;;;;;;7.53;6.83;;;23.70;99.90;;;;;;5036110;28;20453;-73
2023/09/13 09:52:43;;;;;;;8.80;5.80;;;23.70;99.90;;;;;;5039011;28;20478;-73
2023/09/13 09:55:18;;;;;;;8.30;6.57;;;23.70;99.90;;;;;;5029585;28;20910;-74
2023/09/13 09:57:48;;;;;;;8.87;7.10;;;23.80;99.90;;;;;;5033473;28;20415;-74
2023/09/13 10:00:15;;;;;;;7.83;7.03;;;23.90;99.90;;;;;;5024381;28;20860;-74
2023/09/13 10:02:42;;;;;;;7.83;7.03;;;24.00;99.90;;;;;;5027252;28;20805;-74
2023/09/13 10:05:08;;;;;;;10.30;6.83;;;24.00;99.90;;;;;;5046861;28;20845;-74
2023/09/13 10:07:40;;;;;;;8.40;7.50;;;24.10;99.90;;;;;;5026733;28;20435;-74
2023/09/13 10:10:10;;;;;;;7.90;7.10;;;24.10;99.90;;;;;;5026672;28;20752;-74
2023/09/13 10:12:45;;;;;;;6.53;5.93;;;24.00;99.90;;;;;;5034631;28;20507;-74
2023/09/13 10:15:11;;;;;;;7.73;6.97;;;24.10;99.90;;;;;;5032104;28;20427;-74
2023/09/13 10:17:39;;;;;;;7.60;6.90;;;24.10;99.90;;;;;;5027616;28;20415;-74
2023/09/13 10:20:06;;;;;;;8.30;7.50;;;24.20;99.90;;;;;;5030688;28;20438;-74
2023/09/13 10:22:35;;;;;;;7.27;6.57;;;24.10;99.90;;;;;;5027183;28;20996;-74
2023/09/13 10:25:04;;;;;;;8.07;7.27;;;24.10;99.90;;;;;;5029253;28;20419;-74
2023/09/13 10:27:33;;;;;;;8.00;7.30;;;24.10;99.90;;;;;;5026793;28;22137;-74
2023/09/13 10:30:03;;;;;;;7.50;6.70;;;24.10;99.90;;;;;;5028955;28;20428;-74
2023/09/13 10:32:35;;;;;;;7.03;6.30;;;24.10;99.90;;;;;;5023003;28;20506;-74
2023/09/13 10:35:03;;;;;;;9.93;7.17;;;24.20;99.90;;;;;;5030959;28;21046;-75
2023/09/13 10:37:45;;;;;;;7.70;6.87;;;24.30;99.90;;;;;;5027198;28;21100;-74
2023/09/13 10:40:37;;;;;;;8.10;6.87;;;24.40;99.90;;;;;;5024496;28;20414;-74
2023/09/13 10:43:04;;;;;;;11.10;7.10;;;24.60;99.90;;;;;;5019092;28;20569;-74
2023/09/13 10:45:30;;;;;;;7.50;6.53;;;24.70;99.90;;;;;;5033732;28;20411;-74
2023/09/13 10:47:57;;;;;;;8.90;6.10;;;24.80;99.90;;;;;;5028811;28;20837;-74
2023/09/13 10:50:24;;;;;;;6.40;5.73;;;24.80;99.90;;;;;;5028035;28;20184;-74
2023/09/13 10:52:50;;;;;;;6.83;6.20;;;24.80;99.90;;;;;;5026089;28;20471;-74
2023/09/13 10:55:16;;;;;;;6.80;6.20;;;24.90;99.90;;;;;;5026089;28;20965;-74
2023/09/13 10:57:43;;;;;;;7.27;6.57;;;25.00;99.90;;;;;;5026343;28;20177;-74
2023/09/13 11:00:12;;;;;;;7.20;6.17;;;25.10;99.90;;;;;;5024177;28;20772;-74
2023/09/13 11:02:43;;;;;;;7.97;7.23;;;25.10;99.90;;;;;;5025569;28;20492;-74
2023/09/13 11:05:11;;;;;;;7.80;6.40;;;25.00;99.90;;;;;;5005437;28;20416;-74
2023/09/13 11:07:41;;;;;;;6.63;6.03;;;25.10;99.90;;;;;;5025450;28;20435;-74
2023/09/13 11:10:15;;;;;;;8.80;5.60;;;25.00;99.90;;;;;;5023751;28;20614;-74
2023/09/13 11:12:48;;;;;;;9.10;6.50;;;25.00;99.90;;;;;;5031621;28;20873;-74
2023/09/13 11:15:25;;;;;;;6.63;6.03;;;24.90;99.90;;;;;;5008646;28;20435;-74
2023/09/13 11:17:56;;;;;;;6.00;5.40;;;25.00;99.90;;;;;;5026139;28;21064;-74
2023/09/13 11:20:23;;;;;;;9.40;5.47;;;24.90;99.90;;;;;;5031632;28;20415;-74
2023/09/13 11:23:05;;;;;;;7.53;6.57;;;24.70;99.90;;;;;;5031253;28;20943;-74
2023/09/13 11:25:40;;;;;;;6.90;5.47;;;24.70;99.90;;;;;;5023780;28;20439;-74
2023/09/13 11:28:08;;;;;;;6.67;6.00;;;24.60;99.90;;;;;;5007614;28;20431;-74
2023/09/13 11:30:50;;;;;;;7.00;6.40;;;24.50;99.90;;;;;;5021575;28;20425;-74
2023/09/13 11:33:16;;;;;;;7.57;5.90;;;24.40;99.90;;;;;;5023722;28;20470;-74
2023/09/13 11:35:44;;;;;;;7.10;6.40;;;24.40;99.90;;;;;;5023491;28;20430;-73
2023/09/13 11:38:13;;;;;;;7.77;6.10;;;24.50;99.90;;;;;;5030514;28;20438;-73
2023/09/13 11:40:49;;;;;;;6.80;6.20;;;24.50;99.90;;;;;;5029454;28;20500;-74
2023/09/13 11:43:25;;;;;;;6.30;5.57;;;24.50;99.90;;;;;;5022321;28;20450;-73
2023/09/13 11:45:55;;;;;;;6.27;5.67;;;24.50;99.90;;;;;;5029612;28;20422;-73
2023/09/13 11:48:40;;;;;;;6.90;6.20;;;24.50;99.90;;;;;;5026310;28;20777;-74
2023/09/13 11:51:17;;;;;;;7.27;6.40;;;24.60;99.90;;;;;;5024147;28;20422;-74
2023/09/13 11:53:43;;;;;;;5.30;4.80;;;24.70;99.90;;;;;;5026395;28;21174;-74
2023/09/13 11:56:32;;;;;;;6.50;5.73;;;24.80;99.90;;;;;;5029885;28;20783;-73
2023/09/13 11:58:58;;;;;;;6.67;5.30;;;24.70;99.90;;;;;;5025911;28;21443;-74
2023/09/13 12:01:24;;;;;;;7.77;5.20;;;24.70;99.90;;;;;;5026339;28;20526;-74
2023/09/13 12:03:52;;;;;;;5.80;5.30;;;24.70;99.90;;;;;;5017018;28;20434;-74
2023/09/13 12:06:19;;;;;;;4.90;4.40;;;24.70;99.90;;;;;;5025072;28;20428;-74
2023/09/13 12:08:47;;;;;;;5.53;5.03;;;24.70;99.90;;;;;;5023627;28;20470;-74
2023/09/13 12:11:13;;;;;;;6.00;5.23;;;24.70;99.90;;;;;;5023557;28;20424;-74
2023/09/13 12:13:48;;;;;;;5.13;4.50;;;24.70;99.90;;;;;;5028010;28;20511;-74
2023/09/13 12:16:14;;;;;;;5.73;5.13;;;24.70;99.90;;;;;;5026467;28;20545;-74
2023/09/13 12:18:42;;;;;;;5.10;4.60;;;24.70;99.90;;;;;;5028356;28;20430;-74
2023/09/13 12:21:09;;;;;;;7.83;4.83;;;24.70;99.90;;;;;;5023452;28;20800;-74
2023/09/13 12:23:47;;;;;;;7.60;5.03;;;24.60;99.90;;;;;;5039874;28;20447;-74
2023/09/13 12:26:17;;;;;;;7.53;5.33;;;24.60;99.90;;;;;;5024240;28;20430;-74
2023/09/13 12:28:45;;;;;;;6.93;4.50;;;24.60;99.90;;;;;;5026400;28;20782;-74
2023/09/13 12:31:16;;;;;;;6.60;5.70;;;24.70;99.90;;;;;;5021893;28;20438;-74
2023/09/13 12:33:53;;;;;;;5.90;5.20;;;24.60;99.90;;;;;;5019161;28;20517;-74
2023/09/13 12:36:19;;;;;;;5.90;4.70;;;24.50;99.90;;;;;;5024129;28;20458;-74
2023/09/13 12:38:48;;;;;;;4.93;3.87;;;24.30;99.90;;;;;;5026761;28;20442;-73
2023/09/13 12:41:15;;;;;;;4.10;3.70;;;24.20;99.90;;;;;;5029780;28;20415;-74
2023/09/13 12:43:42;;;;;;;4.80;4.30;;;24.30;99.90;;;;;;5027886;28;21027;-74
2023/09/13 12:46:16;;;;;;;4.20;3.80;;;24.20;99.90;;;;;;5032123;28;20421;-74